Time;durP1;ratioP1;P1;durP2;ratioP2;P2;SDS_P1;SDS_P2;PMS_P1;PMS_P2;Temp;Humidity;BMP_temperature;BMP_pressure;BME280_temperature;BME280_humidity;BME280_pressure;Samples;Min_cycle;Max_cycle;Signal;HPM_P1;HPM_P2
2022/10/23 00:01:36;;;;;;;12.52;6.80;;;;;;;;;;5001429;28;20036;-68
2022/10/23 00:04:05;;;;;;;10.23;6.47;;;;;;;;;;5001861;28;20048;-68
2022/10/23 00:06:31;;;;;;;12.60;7.05;;;;;;;;;;5001907;28;20762;-68
2022/10/23 00:09:00;;;;;;;12.75;7.80;;;;;;;;;;5018150;28;20045;-68
2022/10/23 00:11:27;;;;;;;11.52;7.20;;;;;;;;;;5018150;28;20047;-67
2022/10/23 00:13:53;;;;;;;11.48;7.03;;;;;;;;;;5001870;28;20040;-67
2022/10/23 00:16:19;;;;;;;11.88;7.25;;;;;;;;;;5001888;28;20063;-68
2022/10/23 00:18:44;;;;;;;13.65;7.65;;;;;;;;;;5001794;28;20585;-68
2022/10/23 00:21:11;;;;;;;10.10;6.55;;;;;;;;;;5001574;28;20478;-68
2022/10/23 00:23:36;;;;;;;12.05;6.85;;;;;;;;;;5018106;28;20475;-67
2022/10/23 00:26:05;;;;;;;13.40;6.97;;;;;;;;;;5001477;28;20090;-67
2022/10/23 00:28:31;;;;;;;14.80;6.75;;;;;;;;;;5001441;28;20115;-67
2022/10/23 00:30:56;;;;;;;12.05;7.25;;;;;;;;;;5017931;28;20164;-67
2022/10/23 00:33:24;;;;;;;12.63;7.13;;;;;;;;;;5001749;28;20395;-67
2022/10/23 00:35:52;;;;;;;12.20;6.90;;;;;;;;;;5001305;28;20033;-67
2022/10/23 00:38:17;;;;;;;12.77;6.78;;;;;;;;;;5001368;28;20051;-67
2022/10/23 00:40:45;;;;;;;19.27;7.65;;;;;;;;;;5001494;28;20028;-67
2022/10/23 00:43:20;;;;;;;11.32;6.60;;;;;;;;;;5001199;28;20089;-66
2022/10/23 00:45:49;;;;;;;11.43;6.85;;;;;;;;;;5001606;28;20486;-66
2022/10/23 00:48:15;;;;;;;11.40;6.70;;;;;;;;;;5001441;28;20090;-67
2022/10/23 00:50:49;;;;;;;13.20;7.43;;;;;;;;;;5000982;28;20386;-68
2022/10/23 00:53:16;;;;;;;10.32;6.43;;;;;;;;;;5001561;28;20044;-67
2022/10/23 00:55:45;;;;;;;16.58;6.63;;;;;;;;;;5017530;28;20048;-67
2022/10/23 00:58:12;;;;;;;12.27;7.05;;;;;;;;;;5000949;28;20052;-68
2022/10/23 01:00:43;;;;;;;10.93;7.15;;;;;;;;;;5017278;28;20039;-68
2022/10/23 01:03:09;;;;;;;12.43;7.20;;;;;;;;;;5000834;28;20474;-67
2022/10/23 01:05:40;;;;;;;11.32;6.43;;;;;;;;;;5033818;28;20119;-67
2022/10/23 01:08:11;;;;;;;15.48;7.60;;;;;;;;;;5017329;28;20087;-66
2022/10/23 01:10:43;;;;;;;15.35;7.38;;;;;;;;;;5000524;28;20509;-66
2022/10/23 01:13:09;;;;;;;16.83;7.03;;;;;;;;;;5000040;28;20079;-66
2022/10/23 01:15:54;;;;;;;12.73;7.95;;;;;;;;;;5000889;28;20060;-67
2022/10/23 01:18:23;;;;;;;18.20;7.68;;;;;;;;;;5000671;28;20041;-67
2022/10/23 01:20:50;;;;;;;10.25;6.85;;;;;;;;;;5017032;28;20043;-67
2022/10/23 01:23:15;;;;;;;15.48;7.90;;;;;;;;;;5001105;28;20132;-67
2022/10/23 01:26:24;;;;;;;11.93;8.13;;;;;;;;;;5001502;28;20033;-67
2022/10/23 01:28:54;;;;;;;11.45;7.43;;;;;;;;;;4937982;28;20034;-67
2022/10/23 01:31:26;;;;;;;17.15;7.85;;;;;;;;;;4970223;28;20055;-66
2022/10/23 01:34:13;;;;;;;13.23;8.02;;;;;;;;;;4989145;28;20046;-66
2022/10/23 01:36:41;;;;;;;11.93;7.97;;;;;;;;;;5000873;28;20044;-66
2022/10/23 01:39:12;;;;;;;15.20;7.90;;;;;;;;;;5000579;28;20044;-67
2022/10/23 01:41:51;;;;;;;12.93;8.07;;;;;;;;;;5000542;28;20069;-66
2022/10/23 01:44:26;;;;;;;16.38;8.23;;;;;;;;;;5033396;28;20110;-66
2022/10/23 01:46:52;;;;;;;16.05;8.70;;;;;;;;;;5000528;28;20033;-66
2022/10/23 01:49:19;;;;;;;15.95;8.73;;;;;;;;;;5000300;28;20110;-66
2022/10/23 01:51:54;;;;;;;19.20;9.43;;;;;;;;;;5001125;28;20485;-67
2022/10/23 01:54:25;;;;;;;19.08;9.10;;;;;;;;;;5017339;28;20036;-67
2022/10/23 01:56:54;;;;;;;17.10;9.57;;;;;;;;;;5000680;28;20102;-68
2022/10/23 01:59:30;;;;;;;17.58;9.40;;;;;;;;;;5033195;28;20048;-67
2022/10/23 02:01:57;;;;;;;19.15;10.00;;;;;;;;;;5016678;28;20045;-67
2022/10/23 02:04:29;;;;;;;21.23;9.45;;;;;;;;;;5016688;28;20056;-68
2022/10/23 02:06:55;;;;;;;19.17;10.68;;;;;;;;;;5000103;28;20041;-67
2022/10/23 02:09:21;;;;;;;17.80;10.30;;;;;;;;;;5000202;28;20113;-67
2022/10/23 02:11:54;;;;;;;18.35;11.10;;;;;;;;;;5000473;28;20120;-68
2022/10/23 02:14:27;;;;;;;;;;;;;;;;;;5000846;28;20086;-67
2022/10/23 02:16:53;;;;;;;16.48;10.15;;;;;;;;;;5032963;28;20007;-67
2022/10/23 02:19:22;;;;;;;24.48;11.02;;;;;;;;;;5000266;28;20083;-66
2022/10/23 02:22:27;;;;;;;21.65;10.98;;;;;;;;;;5000969;28;20033;-67
2022/10/23 02:24:55;;;;;;;21.35;11.52;;;;;;;;;;4943386;28;20038;-66
2022/10/23 02:27:25;;;;;;;21.38;10.40;;;;;;;;;;4976529;28;20420;-68
2022/10/23 02:30:00;;;;;;;20.73;10.90;;;;;;;;;;5007489;28;20041;-66
2022/10/23 02:32:27;;;;;;;20.48;10.95;;;;;;;;;;5000594;28;20479;-66
2022/10/23 02:35:00;;;;;;;25.00;11.25;;;;;;;;;;4984482;28;20041;-67
2022/10/23 02:37:26;;;;;;;25.15;11.98;;;;;;;;;;5016666;28;20107;-67
2022/10/23 02:39:56;;;;;;;22.48;12.10;;;;;;;;;;5016347;28;20475;-67
2022/10/23 02:42:28;;;;;;;19.80;11.60;;;;;;;;;;5000376;28;20142;-66
2022/10/23 02:45:12;;;;;;;27.52;11.80;;;;;;;;;;5000067;28;20083;-66
2022/10/23 02:47:45;;;;;;;22.65;12.27;;;;;;;;;;4983936;28;20037;-66
2022/10/23 02:50:23;;;;;;;24.58;12.35;;;;;;;;;;5032803;28;20034;-66
2022/10/23 02:53:05;;;;;;;28.23;11.52;;;;;;;;;;5000000;28;20037;-66
2022/10/23 02:55:33;;;;;;;24.48;12.10;;;;;;;;;;5016245;28;20045;-66
2022/10/23 02:58:11;;;;;;;26.05;13.82;;;;;;;;;;4999761;28;20037;-66
2022/10/23 03:00:44;;;;;;;25.52;12.30;;;;;;;;;;5000383;28;20487;-66
2022/10/23 03:03:21;;;;;;;26.02;12.75;;;;;;;;;;4999809;28;20061;-66
2022/10/23 03:05:47;;;;;;;21.90;12.20;;;;;;;;;;5016236;28;20390;-66
2022/10/23 03:08:13;;;;;;;24.63;12.50;;;;;;;;;;5000019;28;20034;-66
2022/10/23 03:10:40;;;;;;;33.95;12.52;;;;;;;;;;5015978;28;20033;-66
2022/10/23 03:13:06;;;;;;;31.55;13.60;;;;;;;;;;4999897;28;20124;-68
2022/10/23 03:15:38;;;;;;;21.95;11.70;;;;;;;;;;5015979;28;20034;-67
2022/10/23 03:18:09;;;;;;;23.75;13.82;;;;;;;;;;4999471;28;20033;-68
2022/10/23 03:20:40;;;;;;;25.67;13.73;;;;;;;;;;5000169;28;20033;-67
2022/10/23 03:23:06;;;;;;;34.50;13.57;;;;;;;;;;4983147;28;20037;-67
2022/10/23 03:25:32;;;;;;;31.95;13.52;;;;;;;;;;5015771;28;20439;-67
2022/10/23 03:28:00;;;;;;;24.02;13.00;;;;;;;;;;4999424;28;20037;-67
2022/10/23 03:30:26;;;;;;;27.10;12.90;;;;;;;;;;5034745;28;20353;-66
2022/10/23 03:32:53;;;;;;;27.15;13.27;;;;;;;;;;5002507;28;20057;-66
2022/10/23 03:35:22;;;;;;;23.48;13.18;;;;;;;;;;5034341;28;20090;-67
2022/10/23 03:37:47;;;;;;;30.98;13.57;;;;;;;;;;5002603;28;20037;-67
2022/10/23 03:40:17;;;;;;;26.33;13.05;;;;;;;;;;5002422;28;20107;-67
2022/10/23 03:42:43;;;;;;;22.80;12.68;;;;;;;;;;5002792;28;20033;-66
2022/10/23 03:45:12;;;;;;;26.35;13.65;;;;;;;;;;5002747;28;20048;-66
2022/10/23 03:47:40;;;;;;;27.35;15.15;;;;;;;;;;5002021;28;20375;-66
2022/10/23 03:50:09;;;;;;;24.40;14.18;;;;;;;;;;5035894;28;20033;-68
2022/10/23 03:52:35;;;;;;;34.58;14.07;;;;;;;;;;4999730;28;20395;-68
2022/10/23 03:55:00;;;;;;;26.33;13.38;;;;;;;;;;4983584;28;20037;-68
2022/10/23 03:57:31;;;;;;;25.95;13.95;;;;;;;;;;4999742;28;20044;-66
2022/10/23 04:00:05;;;;;;;28.55;14.95;;;;;;;;;;5015808;28;20045;-69
2022/10/23 04:02:44;;;;;;;29.27;14.13;;;;;;;;;;5033890;28;20037;-67
2022/10/23 04:05:10;;;;;;;33.67;14.85;;;;;;;;;;5002826;28;20037;-67
2022/10/23 04:07:38;;;;;;;30.98;14.70;;;;;;;;;;5019488;28;20518;-67
2022/10/23 04:10:04;;;;;;;27.98;13.93;;;;;;;;;;5018952;28;20124;-67
2022/10/23 04:12:29;;;;;;;36.83;14.27;;;;;;;;;;5002719;28;20040;-67
2022/10/23 04:14:55;;;;;;;27.30;14.35;;;;;;;;;;5002800;28;20377;-67
2022/10/23 04:17:20;;;;;;;34.67;14.82;;;;;;;;;;5002393;28;20123;-67
2022/10/23 04:19:49;;;;;;;30.10;14.82;;;;;;;;;;5003034;28;20036;-70
2022/10/23 04:22:15;;;;;;;32.38;14.73;;;;;;;;;;5035589;28;20048;-68
2022/10/23 04:24:45;;;;;;;28.10;14.00;;;;;;;;;;5035503;28;20041;-67
2022/10/23 04:27:16;;;;;;;30.50;14.35;;;;;;;;;;5003395;28;20041;-67
2022/10/23 04:29:42;;;;;;;28.98;14.38;;;;;;;;;;5011890;28;20494;-67
2022/10/23 04:32:08;;;;;;;31.05;15.77;;;;;;;;;;5008856;28;20057;-67
2022/10/23 04:34:36;;;;;;;31.05;14.02;;;;;;;;;;5002026;28;20131;-68
2022/10/23 04:37:02;;;;;;;26.88;13.80;;;;;;;;;;5034742;28;20550;-67
2022/10/23 04:39:30;;;;;;;27.88;14.32;;;;;;;;;;5001573;28;20152;-67
2022/10/23 04:41:58;;;;;;;28.50;14.15;;;;;;;;;;5001264;28;20132;-67
2022/10/23 04:44:26;;;;;;;27.42;13.68;;;;;;;;;;5002220;28;20040;-66
2022/10/23 04:46:52;;;;;;;28.63;14.38;;;;;;;;;;5001615;28;20047;-66
2022/10/23 04:49:18;;;;;;;26.13;13.32;;;;;;;;;;5018268;28;20127;-65
2022/10/23 04:51:46;;;;;;;30.65;12.95;;;;;;;;;;5034027;28;20032;-65
2022/10/23 04:54:43;;;;;;;25.90;12.82;;;;;;;;;;4990242;28;20433;-65
2022/10/23 04:57:18;;;;;;;27.25;13.40;;;;;;;;;;5036461;28;20123;-66
2022/10/23 05:00:15;;;;;;;26.33;13.23;;;;;;;;;;5018131;28;20033;-66
2022/10/23 05:02:53;;;;;;;28.35;14.20;;;;;;;;;;5002653;28;20048;-66
2022/10/23 05:05:20;;;;;;;26.45;13.77;;;;;;;;;;5001877;28;20069;-66
2022/10/23 05:08:11;;;;;;;31.25;14.30;;;;;;;;;;4998126;28;20106;-66
2022/10/23 05:10:57;;;;;;;27.52;13.52;;;;;;;;;;5019794;28;20045;-66
2022/10/23 05:13:23;;;;;;;29.50;14.60;;;;;;;;;;5000831;28;20095;-66
2022/10/23 05:15:49;;;;;;;24.95;13.48;;;;;;;;;;5001094;28;20043;-66
2022/10/23 05:18:16;;;;;;;24.38;13.85;;;;;;;;;;5017234;28;20080;-66
2022/10/23 05:20:44;;;;;;;31.55;16.00;;;;;;;;;;5017625;28;20393;-66
2022/10/23 05:23:10;;;;;;;29.95;13.98;;;;;;;;;;5016330;28;20036;-66
2022/10/23 05:25:47;;;;;;;31.35;14.93;;;;;;;;;;5002377;28;20367;-66
2022/10/23 05:28:16;;;;;;;32.90;13.85;;;;;;;;;;5001220;28;20091;-66
2022/10/23 05:30:41;;;;;;;31.30;16.08;;;;;;;;;;5001190;28;20327;-67
2022/10/23 05:33:08;;;;;;;23.88;13.85;;;;;;;;;;5017154;28;20037;-66
2022/10/23 05:35:38;;;;;;;29.23;14.40;;;;;;;;;;5001931;28;20040;-66
2022/10/23 05:38:08;;;;;;;26.55;14.55;;;;;;;;;;5000959;28;20037;-67
2022/10/23 05:40:33;;;;;;;26.88;14.43;;;;;;;;;;5000970;28;20094;-66
2022/10/23 05:43:06;;;;;;;27.20;14.55;;;;;;;;;;5001575;28;20043;-66
2022/10/23 05:45:51;;;;;;;35.67;14.88;;;;;;;;;;5019730;28;20115;-65
2022/10/23 05:48:19;;;;;;;34.97;15.15;;;;;;;;;;5034283;28;20103;-66
2022/10/23 05:51:06;;;;;;;32.55;15.25;;;;;;;;;;5012304;28;20067;-66
2022/10/23 05:53:48;;;;;;;30.75;14.70;;;;;;;;;;5002203;28;20071;-66
2022/10/23 05:56:21;;;;;;;28.75;15.00;;;;;;;;;;5002276;28;20098;-65
2022/10/23 05:59:00;;;;;;;31.05;15.10;;;;;;;;;;5019819;28;20518;-66
2022/10/23 06:01:49;;;;;;;29.73;15.32;;;;;;;;;;4995670;28;20087;-67
2022/10/23 06:04:21;;;;;;;30.73;14.45;;;;;;;;;;5002548;28;20037;-67
2022/10/23 06:07:28;;;;;;;30.38;14.38;;;;;;;;;;4985942;28;20045;-67
2022/10/23 06:09:55;;;;;;;29.75;14.95;;;;;;;;;;4965520;28;20117;-67
2022/10/23 06:12:23;;;;;;;34.90;14.40;;;;;;;;;;4965912;28;20132;-67
2022/10/23 06:14:54;;;;;;;25.35;15.23;;;;;;;;;;4982300;28;20048;-67
2022/10/23 06:17:27;;;;;;;33.78;14.65;;;;;;;;;;4998982;28;20045;-67
2022/10/23 06:20:01;;;;;;;24.60;14.10;;;;;;;;;;4981548;28;20054;-67
2022/10/23 06:22:28;;;;;;;25.73;13.82;;;;;;;;;;4982034;28;20371;-67
2022/10/23 06:25:04;;;;;;;24.88;14.15;;;;;;;;;;4966302;28;20065;-67
2022/10/23 06:27:29;;;;;;;27.45;12.77;;;;;;;;;;4965589;28;20498;-67
2022/10/23 06:29:57;;;;;;;25.80;13.85;;;;;;;;;;4965300;28;20030;-67
2022/10/23 06:32:23;;;;;;;28.08;13.07;;;;;;;;;;4965820;28;20057;-67
2022/10/23 06:35:05;;;;;;;20.42;12.65;;;;;;;;;;4966756;28;20090;-67
2022/10/23 06:37:32;;;;;;;27.23;13.43;;;;;;;;;;4981831;28;20042;-67
2022/10/23 06:40:08;;;;;;;25.98;12.65;;;;;;;;;;4966121;28;20056;-67
2022/10/23 06:43:07;;;;;;;;;;;;;;;;;;;;;
2022/10/23 06:45:33;;;;;;;24.05;12.55;;;;;;;;;;4997015;28;20456;-67
2022/10/23 06:48:30;;;;;;;23.50;12.20;;;;;;;;;;4957497;28;20128;-67
2022/10/23 06:51:06;;;;;;;28.27;12.80;;;;;;;;;;4981561;28;20460;-68
2022/10/23 06:53:40;;;;;;;27.40;14.02;;;;;;;;;;4981671;28;20042;-67
2022/10/23 06:56:36;;;;;;;26.20;12.23;;;;;;;;;;4956979;28;20055;-67
2022/10/23 06:59:06;;;;;;;30.83;13.05;;;;;;;;;;4980892;28;20045;-68
2022/10/23 07:01:34;;;;;;;25.63;13.27;;;;;;;;;;4964579;28;20036;-67
2022/10/23 07:03:59;;;;;;;25.42;13.82;;;;;;;;;;4980406;28;20042;-67
2022/10/23 07:06:27;;;;;;;24.58;12.98;;;;;;;;;;4964990;28;20468;-68
2022/10/23 07:08:55;;;;;;;24.52;12.98;;;;;;;;;;4965231;28;20026;-67
2022/10/23 07:11:47;;;;;;;22.38;13.23;;;;;;;;;;4998637;28;20040;-68
2022/10/23 07:14:13;;;;;;;24.60;13.57;;;;;;;;;;4999280;28;20059;-67
2022/10/23 07:16:39;;;;;;;26.23;12.88;;;;;;;;;;4981530;28;20475;-67
2022/10/23 07:19:10;;;;;;;20.45;12.75;;;;;;;;;;5000233;28;20049;-67
2022/10/23 07:22:01;;;;;;;29.90;13.48;;;;;;;;;;4997405;28;20511;-67
2022/10/23 07:24:46;;;;;;;26.83;12.45;;;;;;;;;;5015574;28;20030;-66
2022/10/23 07:27:34;;;;;;;28.88;13.07;;;;;;;;;;4985641;28;20499;-66
2022/10/23 07:30:00;;;;;;;24.17;12.95;;;;;;;;;;4999668;28;20430;-67
2022/10/23 07:32:30;;;;;;;22.93;12.60;;;;;;;;;;4983445;28;20203;-67
2022/10/23 07:35:19;;;;;;;29.00;13.63;;;;;;;;;;4997035;28;20498;-67
2022/10/23 07:37:55;;;;;;;22.98;13.32;;;;;;;;;;4983780;28;20025;-67
2022/10/23 07:40:21;;;;;;;26.40;13.10;;;;;;;;;;4981910;28;20506;-68
2022/10/23 07:42:49;;;;;;;27.25;12.88;;;;;;;;;;4980924;28;20509;-67
2022/10/23 07:45:17;;;;;;;28.65;12.73;;;;;;;;;;4981632;28;20152;-67
2022/10/23 07:47:48;;;;;;;30.27;11.82;;;;;;;;;;4982131;28;20418;-67
2022/10/23 07:50:14;;;;;;;24.20;13.05;;;;;;;;;;4979363;28;20048;-67
2022/10/23 07:52:42;;;;;;;28.05;12.35;;;;;;;;;;4979241;28;20061;-68
2022/10/23 07:55:11;;;;;;;22.27;12.15;;;;;;;;;;4987538;28;20127;-67
2022/10/23 07:57:43;;;;;;;28.00;12.40;;;;;;;;;;4981675;28;20038;-67
2022/10/23 08:00:29;;;;;;;26.33;13.82;;;;;;;;;;5000287;28;20044;-68
2022/10/23 08:03:06;;;;;;;30.63;13.02;;;;;;;;;;5014089;28;20038;-68
2022/10/23 08:05:34;;;;;;;36.50;13.25;;;;;;;;;;4981366;28;20037;-67
2022/10/23 08:08:02;;;;;;;27.42;13.98;;;;;;;;;;4998239;28;20513;-71
2022/10/23 08:10:33;;;;;;;31.27;14.57;;;;;;;;;;4981244;28;20029;-67
2022/10/23 08:13:03;;;;;;;36.53;14.75;;;;;;;;;;4979127;28;20068;-68
2022/10/23 08:15:51;;;;;;;33.35;13.85;;;;;;;;;;4995409;28;20084;-68
2022/10/23 08:18:48;;;;;;;36.20;15.98;;;;;;;;;;4980211;28;20446;-66
2022/10/23 08:21:15;;;;;;;42.95;15.55;;;;;;;;;;4995297;28;20124;-67
2022/10/23 08:23:40;;;;;;;36.85;14.60;;;;;;;;;;4995509;28;20145;-72
2022/10/23 08:26:09;;;;;;;37.05;14.43;;;;;;;;;;4989135;28;20048;-66
2022/10/23 08:28:38;;;;;;;43.90;15.75;;;;;;;;;;4995254;28;20125;-66
2022/10/23 08:31:12;;;;;;;39.90;14.55;;;;;;;;;;4978997;28;20094;-67
2022/10/23 08:33:41;;;;;;;31.27;14.25;;;;;;;;;;4978100;28;20495;-66
2022/10/23 08:36:15;;;;;;;37.17;15.00;;;;;;;;;;4995558;28;20579;-67
2022/10/23 08:38:41;;;;;;;37.70;15.23;;;;;;;;;;4978978;28;20483;-66
2022/10/23 08:41:20;;;;;;;29.52;14.07;;;;;;;;;;4979647;28;20068;-67
2022/10/23 08:43:56;;;;;;;40.58;14.80;;;;;;;;;;4994635;28;20045;-66
2022/10/23 08:46:42;;;;;;;34.22;14.60;;;;;;;;;;4982573;28;20038;-66
2022/10/23 08:49:35;;;;;;;34.20;14.50;;;;;;;;;;4998612;28;20040;-66
2022/10/23 08:52:12;;;;;;;34.28;14.52;;;;;;;;;;4980788;28;20037;-66
2022/10/23 08:54:59;;;;;;;35.45;16.10;;;;;;;;;;4980828;28;20033;-67
2022/10/23 08:57:33;;;;;;;32.78;14.93;;;;;;;;;;4991085;28;20084;-66
2022/10/23 09:00:10;;;;;;;40.55;15.98;;;;;;;;;;4995099;28;20068;-68
2022/10/23 09:02:44;;;;;;;35.17;15.38;;;;;;;;;;4995380;28;20057;-67
2022/10/23 09:05:36;;;;;;;41.17;16.55;;;;;;;;;;4977143;28;20042;-67
2022/10/23 09:08:30;;;;;;;33.85;14.93;;;;;;;;;;4956085;28;20396;-69
2022/10/23 09:11:17;;;;;;;37.15;15.65;;;;;;;;;;4977874;28;20049;-67
2022/10/23 09:13:58;;;;;;;40.45;14.90;;;;;;;;;;4961796;28;20056;-67
2022/10/23 09:16:43;;;;;;;31.35;14.85;;;;;;;;;;4978561;28;20034;-67
2022/10/23 09:19:21;;;;;;;31.92;14.60;;;;;;;;;;4980511;28;20475;-67
2022/10/23 09:21:53;;;;;;;41.17;16.00;;;;;;;;;;4996026;28;20463;-67
2022/10/23 09:24:20;;;;;;;34.00;13.95;;;;;;;;;;4976677;28;20033;-67
2022/10/23 09:26:50;;;;;;;35.55;14.48;;;;;;;;;;4979248;28;20034;-66
2022/10/23 09:29:22;;;;;;;36.30;14.82;;;;;;;;;;4975722;28;20087;-66
2022/10/23 09:32:04;;;;;;;33.00;14.63;;;;;;;;;;4980380;28;20883;-67
2022/10/23 09:34:30;;;;;;;38.10;15.15;;;;;;;;;;4997523;28;20028;-67
2022/10/23 09:36:58;;;;;;;35.42;16.00;;;;;;;;;;4999723;28;20060;-65
2022/10/23 09:39:25;;;;;;;35.67;15.93;;;;;;;;;;4999938;28;20041;-66
2022/10/23 09:41:51;;;;;;;33.90;15.60;;;;;;;;;;5016397;28;20045;-66
2022/10/23 09:44:22;;;;;;;36.92;16.67;;;;;;;;;;5016647;28;20977;-65
2022/10/23 09:46:53;;;;;;;53.70;16.33;;;;;;;;;;5000513;28;20064;-65
2022/10/23 09:49:24;;;;;;;43.83;16.48;;;;;;;;;;5016948;28;20044;-66
2022/10/23 09:51:53;;;;;;;44.65;15.75;;;;;;;;;;5033048;28;20041;-66
2022/10/23 09:54:22;;;;;;;39.25;15.63;;;;;;;;;;5008462;28;20037;-65
2022/10/23 09:56:57;;;;;;;35.70;16.65;;;;;;;;;;5013008;28;20037;-67
2022/10/23 09:59:26;;;;;;;42.53;17.33;;;;;;;;;;4985778;28;20037;-67
2022/10/23 10:01:53;;;;;;;39.40;18.02;;;;;;;;;;4998614;28;20120;-67
2022/10/23 10:04:48;;;;;;;39.88;17.13;;;;;;;;;;5015074;28;20033;-65
2022/10/23 10:07:19;;;;;;;41.03;17.60;;;;;;;;;;4999463;28;20560;-67
2022/10/23 10:09:45;;;;;;;40.83;18.88;;;;;;;;;;4997367;28;20033;-66
2022/10/23 10:12:27;;;;;;;36.38;16.80;;;;;;;;;;4997040;28;20035;-66
2022/10/23 10:14:56;;;;;;;37.70;16.80;;;;;;;;;;5014013;28;20048;-67
2022/10/23 10:17:25;;;;;;;39.78;16.50;;;;;;;;;;4996655;28;20029;-67
2022/10/23 10:19:53;;;;;;;37.92;17.80;;;;;;;;;;4998116;28;20087;-66
2022/10/23 10:22:39;;;;;;;49.63;18.30;;;;;;;;;;4997765;28;20120;-68
2022/10/23 10:25:18;;;;;;;41.92;18.55;;;;;;;;;;4997258;28;20478;-69
2022/10/23 10:27:54;;;;;;;45.65;18.92;;;;;;;;;;5015092;28;20056;-66
2022/10/23 10:30:21;;;;;;;43.88;18.27;;;;;;;;;;4996231;28;20037;-65
2022/10/23 10:32:56;;;;;;;39.58;17.75;;;;;;;;;;4998449;28;20057;-67
2022/10/23 10:35:25;;;;;;;42.90;18.20;;;;;;;;;;4997657;28;20128;-66
2022/10/23 10:38:09;;;;;;;38.15;18.13;;;;;;;;;;4997934;28;20041;-66
2022/10/23 10:40:40;;;;;;;40.70;18.52;;;;;;;;;;4994179;28;20195;-66
2022/10/23 10:43:29;;;;;;;44.20;18.45;;;;;;;;;;5013034;28;20021;-66
2022/10/23 10:46:13;;;;;;;41.47;18.20;;;;;;;;;;5015321;28;20462;-66
2022/10/23 10:48:44;;;;;;;44.42;17.88;;;;;;;;;;4999524;28;20060;-66
2022/10/23 10:51:51;;;;;;;42.80;18.77;;;;;;;;;;5036215;28;20087;-66
2022/10/23 10:54:34;;;;;;;45.10;20.10;;;;;;;;;;5019736;28;20068;-66
2022/10/23 10:57:04;;;;;;;48.88;19.05;;;;;;;;;;5015161;28;20037;-66
2022/10/23 10:59:31;;;;;;;38.17;17.55;;;;;;;;;;5016881;28;20486;-66
2022/10/23 11:02:15;;;;;;;42.45;17.63;;;;;;;;;;5002354;28;20033;-67
2022/10/23 11:05:07;;;;;;;46.20;18.42;;;;;;;;;;5003081;28;20524;-65
2022/10/23 11:07:36;;;;;;;46.28;19.73;;;;;;;;;;5010277;28;20047;-72
2022/10/23 11:10:13;;;;;;;41.92;18.92;;;;;;;;;;5055789;28;20040;-67
2022/10/23 11:12:39;;;;;;;43.22;19.02;;;;;;;;;;5054250;28;20060;-67
2022/10/23 11:15:27;;;;;;;43.00;19.27;;;;;;;;;;5037523;28;20047;-66
2022/10/23 11:17:55;;;;;;;41.60;19.20;;;;;;;;;;5007038;28;20474;-66
2022/10/23 11:20:30;;;;;;;42.90;19.73;;;;;;;;;;4997526;28;20049;-72
2022/10/23 11:23:10;;;;;;;39.63;20.52;;;;;;;;;;5011946;28;20128;-66
2022/10/23 11:25:42;;;;;;;45.38;19.60;;;;;;;;;;5000756;28;20029;-66
2022/10/23 11:28:11;;;;;;;44.50;19.55;;;;;;;;;;5000565;28;20040;-66
2022/10/23 11:30:56;;;;;;;43.70;19.23;;;;;;;;;;4996365;28;20434;-66
2022/10/23 11:33:36;;;;;;;48.22;19.45;;;;;;;;;;4992713;28;20070;-67
2022/10/23 11:36:05;;;;;;;46.90;19.75;;;;;;;;;;4997692;28;20065;-68
2022/10/23 11:38:42;;;;;;;47.85;21.17;;;;;;;;;;5031036;28;20383;-68
2022/10/23 11:41:21;;;;;;;39.75;19.88;;;;;;;;;;5014472;28;20036;-68
2022/10/23 11:43:48;;;;;;;43.28;20.05;;;;;;;;;;5018155;28;20025;-68
2022/10/23 11:46:26;;;;;;;50.05;21.27;;;;;;;;;;4991693;28;20037;-67
2022/10/23 11:48:52;;;;;;;46.95;21.65;;;;;;;;;;5011820;28;20029;-68
2022/10/23 11:51:24;;;;;;;43.38;20.77;;;;;;;;;;5001366;28;20257;-67
2022/10/23 11:53:50;;;;;;;45.78;22.05;;;;;;;;;;5002534;28;20044;-68
2022/10/23 11:56:19;;;;;;;48.40;21.05;;;;;;;;;;5000079;28;20036;-68
2022/10/23 11:58:46;;;;;;;49.60;20.88;;;;;;;;;;5017602;28;20045;-76
2022/10/23 12:01:33;;;;;;;40.42;21.05;;;;;;;;;;5000097;28;20048;-69
2022/10/23 12:04:03;;;;;;;45.63;21.00;;;;;;;;;;5014047;28;20123;-68
2022/10/23 12:06:38;;;;;;;54.00;22.10;;;;;;;;;;5014548;28;20056;-68
2022/10/23 12:09:06;;;;;;;46.83;21.52;;;;;;;;;;5000940;28;20037;-68
2022/10/23 12:11:41;;;;;;;42.15;21.00;;;;;;;;;;5014784;28;20040;-68
2022/10/23 12:14:33;;;;;;;49.00;22.20;;;;;;;;;;4996543;28;20107;-68
2022/10/23 12:16:58;;;;;;;44.72;22.63;;;;;;;;;;4998223;28;20102;-67
2022/10/23 12:19:43;;;;;;;50.40;22.67;;;;;;;;;;4997874;28;20045;-68
2022/10/23 12:22:12;;;;;;;56.25;22.48;;;;;;;;;;5012452;28;20033;-68
2022/10/23 12:24:43;;;;;;;50.58;22.27;;;;;;;;;;4999444;28;20040;-68
2022/10/23 12:27:21;;;;;;;48.35;22.80;;;;;;;;;;4996562;28;20591;-68
2022/10/23 12:30:01;;;;;;;43.05;20.05;;;;;;;;;;5014111;28;20041;-66
2022/10/23 12:32:33;;;;;;;46.47;19.17;;;;;;;;;;5029193;28;20450;-66
2022/10/23 12:35:26;;;;;;;40.28;20.42;;;;;;;;;;5024716;28;20178;-67
2022/10/23 12:38:01;;;;;;;41.10;18.85;;;;;;;;;;5000502;28;20025;-67
2022/10/23 12:40:31;;;;;;;39.42;19.10;;;;;;;;;;5013784;28;20092;-67
2022/10/23 12:42:58;;;;;;;40.47;18.85;;;;;;;;;;5008334;28;20110;-67
2022/10/23 12:45:31;;;;;;;37.60;18.73;;;;;;;;;;4992338;28;20472;-66
2022/10/23 12:47:58;;;;;;;39.97;18.88;;;;;;;;;;5015925;28;20124;-66
2022/10/23 12:50:43;;;;;;;;;;;;;;;;;;;;;
2022/10/23 12:53:15;;;;;;;40.92;18.92;;;;;;;;;;5029568;28;20504;-67
2022/10/23 12:55:52;;;;;;;43.72;20.52;;;;;;;;;;4999208;28;20394;-66
2022/10/23 12:58:29;;;;;;;43.35;20.35;;;;;;;;;;5014293;28;20036;-66
2022/10/23 13:00:58;;;;;;;40.85;18.55;;;;;;;;;;4998770;28;20402;-66
2022/10/23 13:03:25;;;;;;;40.70;19.77;;;;;;;;;;5015076;28;20086;-67
2022/10/23 13:05:51;;;;;;;44.53;20.85;;;;;;;;;;5014914;28;20047;-69
2022/10/23 13:08:19;;;;;;;42.80;22.55;;;;;;;;;;4999389;28;20490;-69
2022/10/23 13:11:05;;;;;;;47.63;21.35;;;;;;;;;;5017429;28;20123;-69
2022/10/23 13:13:34;;;;;;;43.50;20.55;;;;;;;;;;5013109;28;20050;-68
2022/10/23 13:15:59;;;;;;;45.47;21.83;;;;;;;;;;4999563;28;20033;-69
2022/10/23 13:18:27;;;;;;;47.97;20.48;;;;;;;;;;4995032;28;20048;-69
2022/10/23 13:20:53;;;;;;;49.72;21.90;;;;;;;;;;4995797;28;20063;-69
2022/10/23 13:23:29;;;;;;;40.60;19.83;;;;;;;;;;5014810;28;20357;-68
2022/10/23 13:26:21;;;;;;;51.17;24.30;;;;;;;;;;4998628;28;20032;-69
2022/10/23 13:28:47;;;;;;;52.38;22.83;;;;;;;;;;5014787;28;20037;-69
2022/10/23 13:31:15;;;;;;;51.08;22.35;;;;;;;;;;4996599;28;20059;-69
2022/10/23 13:33:51;;;;;;;50.33;22.42;;;;;;;;;;4998633;28;20037;-69
2022/10/23 13:36:19;;;;;;;55.97;22.98;;;;;;;;;;4996415;28;20041;-68
2022/10/23 13:38:57;;;;;;;50.33;23.13;;;;;;;;;;5006456;28;20045;-68
2022/10/23 13:41:27;;;;;;;50.90;23.80;;;;;;;;;;4997746;28;20044;-68
2022/10/23 13:43:53;;;;;;;47.63;22.55;;;;;;;;;;5000068;28;20053;-68
2022/10/23 13:46:20;;;;;;;59.13;24.15;;;;;;;;;;4998412;28;20071;-68
2022/10/23 13:48:48;;;;;;;57.15;24.98;;;;;;;;;;5014994;28;20517;-68
2022/10/23 13:51:15;;;;;;;55.47;25.67;;;;;;;;;;4998212;28;20087;-68
2022/10/23 13:53:43;;;;;;;63.13;25.55;;;;;;;;;;5030806;28;20041;-67
2022/10/23 13:56:11;;;;;;;55.30;25.48;;;;;;;;;;4998603;28;20094;-68
2022/10/23 13:58:37;;;;;;;49.80;24.13;;;;;;;;;;5015087;28;20049;-68
2022/10/23 14:01:03;;;;;;;46.88;22.85;;;;;;;;;;5002496;28;20086;-67
2022/10/23 14:03:31;;;;;;;46.95;21.48;;;;;;;;;;4981877;28;20033;-67
2022/10/23 14:05:57;;;;;;;50.05;22.23;;;;;;;;;;4998299;28;20493;-66
2022/10/23 14:08:22;;;;;;;48.13;22.10;;;;;;;;;;4997468;28;20025;-68
2022/10/23 14:10:53;;;;;;;49.08;22.08;;;;;;;;;;4998088;28;20580;-68
2022/10/23 14:13:18;;;;;;;46.35;20.60;;;;;;;;;;4997353;28;20859;-66
2022/10/23 14:15:52;;;;;;;50.22;22.67;;;;;;;;;;5013766;28;20041;-67
2022/10/23 14:18:18;;;;;;;53.80;22.90;;;;;;;;;;5007311;28;20036;-68
2022/10/23 14:20:44;;;;;;;46.28;22.75;;;;;;;;;;5016828;28;20033;-68
2022/10/23 14:23:23;;;;;;;50.42;23.20;;;;;;;;;;4999915;28;20052;-67
2022/10/23 14:25:48;;;;;;;52.03;23.48;;;;;;;;;;5008350;28;20032;-68
2022/10/23 14:28:14;;;;;;;56.30;24.65;;;;;;;;;;5001411;28;20066;-68
2022/10/23 14:30:45;;;;;;;54.08;25.10;;;;;;;;;;5017792;28;20037;-69
2022/10/23 14:33:10;;;;;;;63.45;27.13;;;;;;;;;;5016274;28;20628;-70
2022/10/23 14:35:44;;;;;;;57.00;24.83;;;;;;;;;;5001686;28;20041;-67
2022/10/23 14:38:10;;;;;;;60.78;26.63;;;;;;;;;;5034187;28;20032;-67
2022/10/23 14:40:52;;;;;;;71.38;27.55;;;;;;;;;;5019126;28;20060;-76
2022/10/23 14:43:18;;;;;;;76.05;27.15;;;;;;;;;;5037839;28;20065;-67
2022/10/23 14:45:45;;;;;;;73.10;28.83;;;;;;;;;;5002954;28;20032;-66
2022/10/23 14:48:10;;;;;;;143.02;47.40;;;;;;;;;;5035024;28;20033;-66
2022/10/23 14:50:41;;;;;;;110.80;40.05;;;;;;;;;;4986333;28;20048;-67
2022/10/23 14:53:10;;;;;;;96.28;32.60;;;;;;;;;;5002936;28;20033;-67